Terminal Aerodrome Forecast
Issued by NWS Omaha/Valley, NE

Home | Current Version | Previous Version | Text Only | Print | Product List | Glossary On
Versions: 1 2 3 4 5 6 7 8 9 10 11 12 13 14 15 16 17 18 19 20 21
000
FTUS43 KOAX 221129
TAFLNK
TAF
KLNK 221129Z 2212/2312 07005KT 4SM BR VCSH OVC035
      TEMPO 2212/2214 2SM -SN BKN025
     FM221400 09007KT 4SM BR VCSH OVC015
     FM221700 12007KT 2SM BR VCSH OVC010
     FM221900 12007KT 3SM BR VCSH OVC008
     FM222100 12008KT 1SM -FZDZPL OVC004
     FM230400 14004KT P6SM OVC003 PROB30 2304/2306 1SM -FZDZ
     FM230900 28004KT P6SM BKN020=

USA.gov is the U.S. government's official web portal to all federal, state and local government web resources and services.